sensor_id;sensor_type;location;lat;lon;timestamp;P1;durP1;ratioP1;P2;durP2;ratioP2
26965;SDS011;14522;52.068;4.414;2022-08-11T00:01:14;3.58;;;2.08;;
26965;SDS011;14522;52.068;4.414;2022-08-11T00:03:46;5.03;;;2.33;;
26965;SDS011;14522;52.068;4.414;2022-08-11T00:06:12;4.35;;;2.65;;
26965;SDS011;14522;52.068;4.414;2022-08-11T00:08:40;6.03;;;2.72;;
26965;SDS011;14522;52.068;4.414;2022-08-11T00:11:08;4.75;;;1.55;;
26965;SDS011;14522;52.068;4.414;2022-08-11T00:13:37;3.50;;;2.10;;
26965;SDS011;14522;52.068;4.414;2022-08-11T00:16:11;2.80;;;2.50;;
26965;SDS011;14522;52.068;4.414;2022-08-11T00:18:41;7.32;;;2.67;;
26965;SDS011;14522;52.068;4.414;2022-08-11T00:21:08;3.63;;;2.20;;
26965;SDS011;14522;52.068;4.414;2022-08-11T00:23:46;3.78;;;2.45;;
26965;SDS011;14522;52.068;4.414;2022-08-11T00:26:17;3.20;;;1.58;;
26965;SDS011;14522;52.068;4.414;2022-08-11T00:28:43;5.15;;;2.40;;
26965;SDS011;14522;52.068;4.414;2022-08-11T00:33:52;7.07;;;2.03;;
26965;SDS011;14522;52.068;4.414;2022-08-11T00:36:19;3.53;;;2.50;;
26965;SDS011;14522;52.068;4.414;2022-08-11T00:38:51;6.13;;;2.80;;
26965;SDS011;14522;52.068;4.414;2022-08-11T00:41:34;3.92;;;2.50;;
26965;SDS011;14522;52.068;4.414;2022-08-11T00:57:21;2.97;;;2.25;;
26965;SDS011;14522;52.068;4.414;2022-08-11T01:00:05;4.22;;;1.58;;
26965;SDS011;14522;52.068;4.414;2022-08-11T01:05:33;5.53;;;2.50;;
26965;SDS011;14522;52.068;4.414;2022-08-11T01:08:16;2.97;;;2.30;;
26965;SDS011;14522;52.068;4.414;2022-08-11T01:10:52;4.57;;;1.63;;
26965;SDS011;14522;52.068;4.414;2022-08-11T01:23:35;4.63;;;2.00;;
26965;SDS011;14522;52.068;4.414;2022-08-11T01:36:41;3.55;;;1.92;;
26965;SDS011;14522;52.068;4.414;2022-08-11T01:50:53;3.03;;;2.28;;
26965;SDS011;14522;52.068;4.414;2022-08-11T01:53:22;7.82;;;2.35;;
26965;SDS011;14522;52.068;4.414;2022-08-11T01:56:04;12.27;;;3.35;;
26965;SDS011;14522;52.068;4.414;2022-08-11T02:01:11;3.28;;;2.28;;
26965;SDS011;14522;52.068;4.414;2022-08-11T02:06:30;5.43;;;2.58;;
26965;SDS011;14522;52.068;4.414;2022-08-11T02:09:43;4.00;;;1.67;;
26965;SDS011;14522;52.068;4.414;2022-08-11T02:12:25;3.25;;;1.92;;
26965;SDS011;14522;52.068;4.414;2022-08-11T02:15:14;3.47;;;2.25;;
26965;SDS011;14522;52.068;4.414;2022-08-11T02:17:49;2.42;;;1.77;;
26965;SDS011;14522;52.068;4.414;2022-08-11T02:20:25;6.70;;;2.78;;
26965;SDS011;14522;52.068;4.414;2022-08-11T02:26:26;4.30;;;2.28;;
26965;SDS011;14522;52.068;4.414;2022-08-11T02:53:53;3.60;;;2.22;;
26965;SDS011;14522;52.068;4.414;2022-08-11T03:04:35;4.72;;;2.50;;
26965;SDS011;14522;52.068;4.414;2022-08-11T03:09:52;6.78;;;2.90;;
26965;SDS011;14522;52.068;4.414;2022-08-11T03:15:27;3.22;;;2.38;;
26965;SDS011;14522;52.068;4.414;2022-08-11T03:18:17;4.28;;;2.90;;
26965;SDS011;14522;52.068;4.414;2022-08-11T03:25:48;3.38;;;2.28;;
26965;SDS011;14522;52.068;4.414;2022-08-11T03:31:22;4.53;;;2.60;;
26965;SDS011;14522;52.068;4.414;2022-08-11T03:33:54;3.92;;;2.33;;
26965;SDS011;14522;52.068;4.414;2022-08-11T03:36:42;2.78;;;2.25;;
26965;SDS011;14522;52.068;4.414;2022-08-11T03:55:30;5.53;;;2.40;;
26965;SDS011;14522;52.068;4.414;2022-08-11T03:58:21;3.88;;;3.00;;
26965;SDS011;14522;52.068;4.414;2022-08-11T04:08:44;5.28;;;2.70;;
26965;SDS011;14522;52.068;4.414;2022-08-11T04:24:17;1.90;;;1.70;;
26965;SDS011;14522;52.068;4.414;2022-08-11T04:35:44;3.72;;;2.60;;
26965;SDS011;14522;52.068;4.414;2022-08-11T05:00:51;6.70;;;2.75;;
26965;SDS011;14522;52.068;4.414;2022-08-11T05:03:42;4.32;;;2.67;;
26965;SDS011;14522;52.068;4.414;2022-08-11T05:09:07;2.45;;;2.05;;
26965;SDS011;14522;52.068;4.414;2022-08-11T05:14:31;6.65;;;1.77;;
26965;SDS011;14522;52.068;4.414;2022-08-11T05:17:30;4.90;;;2.55;;
26965;SDS011;14522;52.068;4.414;2022-08-11T05:20:17;3.17;;;2.38;;
26965;SDS011;14522;52.068;4.414;2022-08-11T05:23:03;4.05;;;2.60;;
26965;SDS011;14522;52.068;4.414;2022-08-11T05:25:48;6.30;;;3.00;;
26965;SDS011;14522;52.068;4.414;2022-08-11T05:28:59;5.28;;;2.97;;
26965;SDS011;14522;52.068;4.414;2022-08-11T05:31:50;3.08;;;2.05;;
26965;SDS011;14522;52.068;4.414;2022-08-11T05:34:43;4.80;;;2.70;;
26965;SDS011;14522;52.068;4.414;2022-08-11T05:39:56;5.95;;;3.00;;
26965;SDS011;14522;52.068;4.414;2022-08-11T05:42:47;5.05;;;3.08;;
26965;SDS011;14522;52.068;4.414;2022-08-11T05:45:33;4.10;;;2.22;;
26965;SDS011;14522;52.068;4.414;2022-08-11T05:48:34;4.63;;;2.88;;
26965;SDS011;14522;52.068;4.414;2022-08-11T05:51:19;5.32;;;2.55;;
26965;SDS011;14522;52.068;4.414;2022-08-11T05:54:19;8.70;;;3.35;;
26965;SDS011;14522;52.068;4.414;2022-08-11T05:57:05;3.57;;;2.60;;
26965;SDS011;14522;52.068;4.414;2022-08-11T05:59:31;5.97;;;3.08;;
26965;SDS011;14522;52.068;4.414;2022-08-11T06:02:04;7.25;;;3.45;;
26965;SDS011;14522;52.068;4.414;2022-08-11T06:04:32;7.65;;;2.42;;
26965;SDS011;14522;52.068;4.414;2022-08-11T06:07:00;7.20;;;3.25;;
26965;SDS011;14522;52.068;4.414;2022-08-11T06:09:30;4.93;;;3.35;;
26965;SDS011;14522;52.068;4.414;2022-08-11T06:12:00;6.75;;;3.33;;
26965;SDS011;14522;52.068;4.414;2022-08-11T06:14:28;6.13;;;3.10;;
26965;SDS011;14522;52.068;4.414;2022-08-11T06:16:56;7.40;;;3.35;;
26965;SDS011;14522;52.068;4.414;2022-08-11T06:19:30;5.00;;;2.90;;
26965;SDS011;14522;52.068;4.414;2022-08-11T06:21:57;3.97;;;2.83;;
26965;SDS011;14522;52.068;4.414;2022-08-11T06:24:24;6.20;;;3.28;;
26965;SDS011;14522;52.068;4.414;2022-08-11T06:26:54;6.30;;;3.88;;
26965;SDS011;14522;52.068;4.414;2022-08-11T06:29:45;6.45;;;3.40;;
26965;SDS011;14522;52.068;4.414;2022-08-11T06:32:20;5.63;;;3.53;;
26965;SDS011;14522;52.068;4.414;2022-08-11T06:37:15;3.70;;;3.33;;
26965;SDS011;14522;52.068;4.414;2022-08-11T06:39:46;5.35;;;3.72;;
26965;SDS011;14522;52.068;4.414;2022-08-11T06:42:21;6.38;;;2.67;;
26965;SDS011;14522;52.068;4.414;2022-08-11T06:45:00;4.40;;;3.38;;
26965;SDS011;14522;52.068;4.414;2022-08-11T06:47:30;5.72;;;3.47;;
26965;SDS011;14522;52.068;4.414;2022-08-11T06:49:57;5.45;;;3.72;;
26965;SDS011;14522;52.068;4.414;2022-08-11T06:52:42;5.78;;;3.33;;
26965;SDS011;14522;52.068;4.414;2022-08-11T06:55:20;5.53;;;3.53;;
26965;SDS011;14522;52.068;4.414;2022-08-11T06:58:25;4.63;;;3.28;;
26965;SDS011;14522;52.068;4.414;2022-08-11T07:01:12;7.72;;;3.97;;
26965;SDS011;14522;52.068;4.414;2022-08-11T07:03:42;6.95;;;4.00;;
26965;SDS011;14522;52.068;4.414;2022-08-11T07:06:14;4.13;;;2.85;;
26965;SDS011;14522;52.068;4.414;2022-08-11T07:08:53;4.78;;;3.13;;
26965;SDS011;14522;52.068;4.414;2022-08-11T07:14:33;5.30;;;3.80;;
26965;SDS011;14522;52.068;4.414;2022-08-11T07:17:25;8.15;;;3.88;;
26965;SDS011;14522;52.068;4.414;2022-08-11T07:19:56;6.68;;;4.00;;
26965;SDS011;14522;52.068;4.414;2022-08-11T07:22:42;7.25;;;3.05;;
26965;SDS011;14522;52.068;4.414;2022-08-11T07:25:30;6.78;;;3.25;;
26965;SDS011;14522;52.068;4.414;2022-08-11T07:28:18;6.93;;;3.03;;
26965;SDS011;14522;52.068;4.414;2022-08-11T07:31:09;7.90;;;3.15;;
26965;SDS011;14522;52.068;4.414;2022-08-11T07:33:41;8.25;;;3.10;;
26965;SDS011;14522;52.068;4.414;2022-08-11T07:36:29;7.43;;;3.50;;
26965;SDS011;14522;52.068;4.414;2022-08-11T07:38:56;5.80;;;3.20;;
26965;SDS011;14522;52.068;4.414;2022-08-11T07:41:23;7.25;;;3.53;;
26965;SDS011;14522;52.068;4.414;2022-08-11T07:43:54;5.90;;;3.08;;
26965;SDS011;14522;52.068;4.414;2022-08-11T07:46:20;5.45;;;2.83;;
26965;SDS011;14522;52.068;4.414;2022-08-11T07:49:06;5.70;;;2.40;;
26965;SDS011;14522;52.068;4.414;2022-08-11T07:51:52;9.13;;;3.47;;
26965;SDS011;14522;52.068;4.414;2022-08-11T07:54:38;7.03;;;3.38;;
26965;SDS011;14522;52.068;4.414;2022-08-11T07:57:08;4.60;;;3.00;;
26965;SDS011;14522;52.068;4.414;2022-08-11T08:00:14;4.35;;;3.80;;
26965;SDS011;14522;52.068;4.414;2022-08-11T08:03:00;6.18;;;3.63;;
26965;SDS011;14522;52.068;4.414;2022-08-11T08:05:45;5.63;;;2.88;;
26965;SDS011;14522;52.068;4.414;2022-08-11T08:08:40;9.60;;;3.85;;
26965;SDS011;14522;52.068;4.414;2022-08-11T08:11:26;5.80;;;4.05;;
26965;SDS011;14522;52.068;4.414;2022-08-11T08:14:11;7.50;;;4.10;;
26965;SDS011;14522;52.068;4.414;2022-08-11T08:16:58;9.05;;;3.90;;
26965;SDS011;14522;52.068;4.414;2022-08-11T08:19:46;4.93;;;3.17;;
26965;SDS011;14522;52.068;4.414;2022-08-11T08:22:19;5.00;;;3.53;;
26965;SDS011;14522;52.068;4.414;2022-08-11T08:25:06;5.03;;;3.33;;
26965;SDS011;14522;52.068;4.414;2022-08-11T08:27:33;6.90;;;3.63;;
26965;SDS011;14522;52.068;4.414;2022-08-11T08:30:01;8.50;;;3.70;;
26965;SDS011;14522;52.068;4.414;2022-08-11T08:32:48;5.75;;;3.58;;
26965;SDS011;14522;52.068;4.414;2022-08-11T08:35:16;10.15;;;3.58;;
26965;SDS011;14522;52.068;4.414;2022-08-11T08:37:43;6.32;;;2.95;;
26965;SDS011;14522;52.068;4.414;2022-08-11T08:40:12;5.97;;;3.58;;
26965;SDS011;14522;52.068;4.414;2022-08-11T08:42:40;9.68;;;3.53;;
26965;SDS011;14522;52.068;4.414;2022-08-11T08:45:11;7.35;;;3.63;;
26965;SDS011;14522;52.068;4.414;2022-08-11T08:47:41;6.28;;;3.42;;
26965;SDS011;14522;52.068;4.414;2022-08-11T08:50:16;10.57;;;3.35;;
26965;SDS011;14522;52.068;4.414;2022-08-11T08:53:00;11.50;;;3.85;;
26965;SDS011;14522;52.068;4.414;2022-08-11T08:55:29;9.15;;;3.70;;
26965;SDS011;14522;52.068;4.414;2022-08-11T08:57:55;4.30;;;3.10;;
26965;SDS011;14522;52.068;4.414;2022-08-11T09:00:28;7.60;;;2.67;;
26965;SDS011;14522;52.068;4.414;2022-08-11T09:03:02;14.73;;;3.83;;
26965;SDS011;14522;52.068;4.414;2022-08-11T09:05:49;4.35;;;2.47;;
26965;SDS011;14522;52.068;4.414;2022-08-11T09:08:18;10.60;;;2.85;;
26965;SDS011;14522;52.068;4.414;2022-08-11T09:10:46;8.82;;;2.63;;
26965;SDS011;14522;52.068;4.414;2022-08-11T09:13:39;5.97;;;2.97;;
26965;SDS011;14522;52.068;4.414;2022-08-11T09:16:07;8.40;;;2.95;;
26965;SDS011;14522;52.068;4.414;2022-08-11T09:18:35;5.20;;;2.63;;
26965;SDS011;14522;52.068;4.414;2022-08-11T09:21:02;3.17;;;2.25;;
26965;SDS011;14522;52.068;4.414;2022-08-11T09:23:29;7.28;;;2.67;;
26965;SDS011;14522;52.068;4.414;2022-08-11T09:26:34;5.05;;;2.20;;
26965;SDS011;14522;52.068;4.414;2022-08-11T09:29:20;4.88;;;2.13;;
26965;SDS011;14522;52.068;4.414;2022-08-11T09:31:47;5.85;;;2.22;;
26965;SDS011;14522;52.068;4.414;2022-08-11T09:34:14;8.43;;;2.10;;
26965;SDS011;14522;52.068;4.414;2022-08-11T09:36:42;6.22;;;2.00;;
26965;SDS011;14522;52.068;4.414;2022-08-11T09:39:28;4.63;;;2.05;;
26965;SDS011;14522;52.068;4.414;2022-08-11T09:42:14;7.60;;;2.13;;
26965;SDS011;14522;52.068;4.414;2022-08-11T09:44:41;4.85;;;1.77;;
26965;SDS011;14522;52.068;4.414;2022-08-11T09:49:44;5.07;;;1.85;;
26965;SDS011;14522;52.068;4.414;2022-08-11T09:52:11;7.57;;;1.92;;
26965;SDS011;14522;52.068;4.414;2022-08-11T09:54:40;3.33;;;1.80;;
26965;SDS011;14522;52.068;4.414;2022-08-11T09:57:07;5.93;;;1.80;;
26965;SDS011;14522;52.068;4.414;2022-08-11T09:59:52;8.03;;;1.90;;
26965;SDS011;14522;52.068;4.414;2022-08-11T10:02:39;7.07;;;2.05;;
26965;SDS011;14522;52.068;4.414;2022-08-11T10:05:06;3.70;;;1.80;;
26965;SDS011;14522;52.068;4.414;2022-08-11T10:07:51;4.50;;;1.85;;
26965;SDS011;14522;52.068;4.414;2022-08-11T10:10:18;5.72;;;1.88;;
26965;SDS011;14522;52.068;4.414;2022-08-11T10:12:49;5.20;;;1.80;;
26965;SDS011;14522;52.068;4.414;2022-08-11T10:15:17;5.63;;;1.90;;
26965;SDS011;14522;52.068;4.414;2022-08-11T10:18:01;3.35;;;1.50;;
26965;SDS011;14522;52.068;4.414;2022-08-11T10:20:47;3.20;;;1.50;;
26965;SDS011;14522;52.068;4.414;2022-08-11T10:23:15;4.20;;;1.55;;
26965;SDS011;14522;52.068;4.414;2022-08-11T10:26:22;2.78;;;1.63;;
26965;SDS011;14522;52.068;4.414;2022-08-11T10:29:08;6.65;;;1.50;;
26965;SDS011;14522;52.068;4.414;2022-08-11T10:32:03;6.80;;;1.70;;
26965;SDS011;14522;52.068;4.414;2022-08-11T10:34:56;3.80;;;1.67;;
26965;SDS011;14522;52.068;4.414;2022-08-11T10:37:26;3.20;;;1.55;;
26965;SDS011;14522;52.068;4.414;2022-08-11T10:40:20;5.53;;;1.55;;
26965;SDS011;14522;52.068;4.414;2022-08-11T10:42:51;6.25;;;2.08;;
26965;SDS011;14522;52.068;4.414;2022-08-11T10:45:29;5.55;;;1.85;;
26965;SDS011;14522;52.068;4.414;2022-08-11T10:48:14;5.10;;;1.50;;
26965;SDS011;14522;52.068;4.414;2022-08-11T10:50:44;6.20;;;1.48;;
26965;SDS011;14522;52.068;4.414;2022-08-11T10:53:29;3.15;;;1.48;;
26965;SDS011;14522;52.068;4.414;2022-08-11T10:56:14;1.87;;;1.50;;
26965;SDS011;14522;52.068;4.414;2022-08-11T10:59:00;5.25;;;1.88;;
26965;SDS011;14522;52.068;4.414;2022-08-11T11:01:30;2.88;;;1.40;;
26965;SDS011;14522;52.068;4.414;2022-08-11T11:03:58;5.75;;;1.30;;
26965;SDS011;14522;52.068;4.414;2022-08-11T11:09:01;2.40;;;1.20;;
26965;SDS011;14522;52.068;4.414;2022-08-11T11:11:32;2.03;;;1.33;;
26965;SDS011;14522;52.068;4.414;2022-08-11T11:14:19;8.52;;;1.50;;
26965;SDS011;14522;52.068;4.414;2022-08-11T11:17:22;2.63;;;1.33;;
26965;SDS011;14522;52.068;4.414;2022-08-11T11:20:09;3.92;;;1.40;;
26965;SDS011;14522;52.068;4.414;2022-08-11T11:23:00;4.57;;;1.40;;
26965;SDS011;14522;52.068;4.414;2022-08-11T11:28:09;4.53;;;1.10;;
26965;SDS011;14522;52.068;4.414;2022-08-11T11:31:20;4.07;;;1.17;;
26965;SDS011;14522;52.068;4.414;2022-08-11T11:36:37;2.45;;;1.38;;
26965;SDS011;14522;52.068;4.414;2022-08-11T11:39:06;2.80;;;1.00;;
26965;SDS011;14522;52.068;4.414;2022-08-11T11:41:33;4.78;;;1.30;;
26965;SDS011;14522;52.068;4.414;2022-08-11T11:44:00;3.35;;;1.30;;
26965;SDS011;14522;52.068;4.414;2022-08-11T11:46:27;3.22;;;1.20;;
26965;SDS011;14522;52.068;4.414;2022-08-11T11:48:55;2.00;;;1.13;;
26965;SDS011;14522;52.068;4.414;2022-08-11T11:51:22;2.58;;;1.15;;
26965;SDS011;14522;52.068;4.414;2022-08-11T11:53:50;3.20;;;1.60;;
26965;SDS011;14522;52.068;4.414;2022-08-11T11:56:16;2.08;;;1.48;;
26965;SDS011;14522;52.068;4.414;2022-08-11T11:58:43;4.82;;;1.42;;
26965;SDS011;14522;52.068;4.414;2022-08-11T12:01:29;3.70;;;1.52;;
26965;SDS011;14522;52.068;4.414;2022-08-11T12:03:56;3.80;;;1.45;;
26965;SDS011;14522;52.068;4.414;2022-08-11T12:06:23;3.28;;;1.55;;
26965;SDS011;14522;52.068;4.414;2022-08-11T12:08:53;4.50;;;1.60;;
26965;SDS011;14522;52.068;4.414;2022-08-11T12:11:21;7.30;;;1.58;;
26965;SDS011;14522;52.068;4.414;2022-08-11T12:14:09;4.70;;;1.70;;
26965;SDS011;14522;52.068;4.414;2022-08-11T12:16:36;2.08;;;1.38;;
26965;SDS011;14522;52.068;4.414;2022-08-11T12:19:08;2.95;;;1.58;;
26965;SDS011;14522;52.068;4.414;2022-08-11T12:21:37;7.35;;;1.42;;
26965;SDS011;14522;52.068;4.414;2022-08-11T12:24:26;2.25;;;1.60;;
26965;SDS011;14522;52.068;4.414;2022-08-11T12:29:53;3.72;;;1.60;;
26965;SDS011;14522;52.068;4.414;2022-08-11T12:32:22;4.70;;;1.52;;
26965;SDS011;14522;52.068;4.414;2022-08-11T12:34:49;7.47;;;1.58;;
26965;SDS011;14522;52.068;4.414;2022-08-11T12:37:19;3.78;;;1.60;;
26965;SDS011;14522;52.068;4.414;2022-08-11T12:39:49;6.05;;;1.67;;
26965;SDS011;14522;52.068;4.414;2022-08-11T12:42:55;3.55;;;1.92;;
26965;SDS011;14522;52.068;4.414;2022-08-11T12:45:47;4.60;;;1.80;;
26965;SDS011;14522;52.068;4.414;2022-08-11T12:48:16;6.22;;;1.70;;
26965;SDS011;14522;52.068;4.414;2022-08-11T12:51:23;7.97;;;1.77;;
26965;SDS011;14522;52.068;4.414;2022-08-11T12:57:05;6.22;;;1.80;;
26965;SDS011;14522;52.068;4.414;2022-08-11T13:00:04;6.38;;;1.80;;
26965;SDS011;14522;52.068;4.414;2022-08-11T13:02:49;5.82;;;2.00;;
26965;SDS011;14522;52.068;4.414;2022-08-11T13:05:34;6.22;;;1.70;;
26965;SDS011;14522;52.068;4.414;2022-08-11T13:08:10;4.38;;;1.60;;
26965;SDS011;14522;52.068;4.414;2022-08-11T13:10:37;2.60;;;1.40;;
26965;SDS011;14522;52.068;4.414;2022-08-11T13:13:22;4.60;;;1.23;;
26965;SDS011;14522;52.068;4.414;2022-08-11T13:16:09;3.03;;;1.40;;
26965;SDS011;14522;52.068;4.414;2022-08-11T13:18:37;2.25;;;1.55;;
26965;SDS011;14522;52.068;4.414;2022-08-11T13:21:10;7.57;;;1.50;;
26965;SDS011;14522;52.068;4.414;2022-08-11T13:23:46;3.03;;;1.67;;
26965;SDS011;14522;52.068;4.414;2022-08-11T13:26:28;5.72;;;1.40;;
26965;SDS011;14522;52.068;4.414;2022-08-11T13:29:12;3.00;;;1.47;;
26965;SDS011;14522;52.068;4.414;2022-08-11T13:31:40;3.58;;;1.58;;
26965;SDS011;14522;52.068;4.414;2022-08-11T13:34:08;3.85;;;1.70;;
26965;SDS011;14522;52.068;4.414;2022-08-11T13:36:34;3.53;;;1.70;;
26965;SDS011;14522;52.068;4.414;2022-08-11T13:39:01;2.30;;;1.42;;
26965;SDS011;14522;52.068;4.414;2022-08-11T13:41:28;5.43;;;1.50;;
26965;SDS011;14522;52.068;4.414;2022-08-11T13:44:09;4.85;;;1.92;;
26965;SDS011;14522;52.068;4.414;2022-08-11T13:46:37;4.75;;;2.28;;
26965;SDS011;14522;52.068;4.414;2022-08-11T13:49:05;6.30;;;1.50;;
26965;SDS011;14522;52.068;4.414;2022-08-11T13:51:35;7.18;;;1.42;;
26965;SDS011;14522;52.068;4.414;2022-08-11T13:54:03;5.38;;;1.70;;
26965;SDS011;14522;52.068;4.414;2022-08-11T13:56:31;3.10;;;1.70;;
26965;SDS011;14522;52.068;4.414;2022-08-11T13:58:58;7.28;;;1.70;;
26965;SDS011;14522;52.068;4.414;2022-08-11T14:01:27;7.25;;;1.67;;
26965;SDS011;14522;52.068;4.414;2022-08-11T14:04:37;5.38;;;2.17;;
26965;SDS011;14522;52.068;4.414;2022-08-11T14:07:02;4.40;;;1.45;;
26965;SDS011;14522;52.068;4.414;2022-08-11T14:09:31;9.70;;;1.45;;
26965;SDS011;14522;52.068;4.414;2022-08-11T14:12:00;5.32;;;1.65;;
26965;SDS011;14522;52.068;4.414;2022-08-11T14:15:06;6.28;;;1.90;;
26965;SDS011;14522;52.068;4.414;2022-08-11T14:17:34;2.00;;;1.70;;
26965;SDS011;14522;52.068;4.414;2022-08-11T14:20:15;2.78;;;1.70;;
26965;SDS011;14522;52.068;4.414;2022-08-11T14:23:02;7.93;;;2.15;;
26965;SDS011;14522;52.068;4.414;2022-08-11T14:25:29;2.67;;;1.65;;
26965;SDS011;14522;52.068;4.414;2022-08-11T14:28:15;4.07;;;1.70;;
26965;SDS011;14522;52.068;4.414;2022-08-11T14:30:59;3.17;;;1.85;;
26965;SDS011;14522;52.068;4.414;2022-08-11T14:33:27;4.00;;;1.77;;
26965;SDS011;14522;52.068;4.414;2022-08-11T14:36:14;4.07;;;1.40;;
26965;SDS011;14522;52.068;4.414;2022-08-11T14:38:40;6.40;;;1.90;;
26965;SDS011;14522;52.068;4.414;2022-08-11T14:41:07;8.27;;;1.55;;
26965;SDS011;14522;52.068;4.414;2022-08-11T14:43:53;3.25;;;1.55;;
26965;SDS011;14522;52.068;4.414;2022-08-11T14:46:40;7.55;;;1.80;;
26965;SDS011;14522;52.068;4.414;2022-08-11T14:49:26;5.60;;;1.90;;
26965;SDS011;14522;52.068;4.414;2022-08-11T14:51:53;3.38;;;1.80;;
26965;SDS011;14522;52.068;4.414;2022-08-11T14:54:21;5.65;;;1.33;;
26965;SDS011;14522;52.068;4.414;2022-08-11T14:57:08;7.13;;;1.52;;
26965;SDS011;14522;52.068;4.414;2022-08-11T14:59:34;10.70;;;1.52;;
26965;SDS011;14522;52.068;4.414;2022-08-11T15:02:01;4.50;;;2.08;;
26965;SDS011;14522;52.068;4.414;2022-08-11T15:04:47;3.88;;;1.55;;
26965;SDS011;14522;52.068;4.414;2022-08-11T15:07:13;3.05;;;1.50;;
26965;SDS011;14522;52.068;4.414;2022-08-11T15:09:42;1.38;;;1.27;;
26965;SDS011;14522;52.068;4.414;2022-08-11T15:12:29;3.10;;;1.33;;
26965;SDS011;14522;52.068;4.414;2022-08-11T15:14:59;4.28;;;1.42;;
26965;SDS011;14522;52.068;4.414;2022-08-11T15:17:44;2.42;;;1.65;;
26965;SDS011;14522;52.068;4.414;2022-08-11T15:20:15;1.92;;;1.50;;
26965;SDS011;14522;52.068;4.414;2022-08-11T15:23:01;3.20;;;1.20;;
26965;SDS011;14522;52.068;4.414;2022-08-11T15:25:50;1.70;;;1.20;;
26965;SDS011;14522;52.068;4.414;2022-08-11T15:28:18;3.30;;;1.40;;
26965;SDS011;14522;52.068;4.414;2022-08-11T15:31:03;2.92;;;1.73;;
26965;SDS011;14522;52.068;4.414;2022-08-11T15:33:50;2.95;;;1.48;;
26965;SDS011;14522;52.068;4.414;2022-08-11T15:36:37;4.60;;;1.42;;
26965;SDS011;14522;52.068;4.414;2022-08-11T15:40:00;3.35;;;1.38;;
26965;SDS011;14522;52.068;4.414;2022-08-11T15:45:38;6.53;;;1.42;;
26965;SDS011;14522;52.068;4.414;2022-08-11T15:48:17;2.08;;;1.48;;
26965;SDS011;14522;52.068;4.414;2022-08-11T15:50:49;6.28;;;1.50;;
26965;SDS011;14522;52.068;4.414;2022-08-11T15:53:19;2.47;;;1.20;;
26965;SDS011;14522;52.068;4.414;2022-08-11T15:55:47;2.83;;;1.50;;
26965;SDS011;14522;52.068;4.414;2022-08-11T15:58:14;4.95;;;1.30;;
26965;SDS011;14522;52.068;4.414;2022-08-11T16:01:00;5.22;;;1.63;;
26965;SDS011;14522;52.068;4.414;2022-08-11T16:03:55;4.25;;;1.27;;
26965;SDS011;14522;52.068;4.414;2022-08-11T16:06:43;4.80;;;1.48;;
26965;SDS011;14522;52.068;4.414;2022-08-11T16:09:16;5.15;;;1.30;;
26965;SDS011;14522;52.068;4.414;2022-08-11T16:11:44;4.38;;;1.23;;
26965;SDS011;14522;52.068;4.414;2022-08-11T16:14:11;3.25;;;1.10;;
26965;SDS011;14522;52.068;4.414;2022-08-11T16:16:56;2.28;;;1.42;;
26965;SDS011;14522;52.068;4.414;2022-08-11T16:19:24;4.90;;;1.10;;
26965;SDS011;14522;52.068;4.414;2022-08-11T16:21:51;4.53;;;1.60;;
26965;SDS011;14522;52.068;4.414;2022-08-11T16:24:18;1.80;;;1.30;;
26965;SDS011;14522;52.068;4.414;2022-08-11T16:27:05;5.85;;;1.40;;
26965;SDS011;14522;52.068;4.414;2022-08-11T16:29:40;7.57;;;1.17;;
26965;SDS011;14522;52.068;4.414;2022-08-11T16:32:08;5.78;;;1.20;;
26965;SDS011;14522;52.068;4.414;2022-08-11T16:34:46;3.28;;;1.10;;
26965;SDS011;14522;52.068;4.414;2022-08-11T16:37:32;3.28;;;1.38;;
26965;SDS011;14522;52.068;4.414;2022-08-11T16:42:44;5.55;;;1.00;;
26965;SDS011;14522;52.068;4.414;2022-08-11T16:45:37;3.15;;;1.10;;
26965;SDS011;14522;52.068;4.414;2022-08-11T16:48:23;3.05;;;1.13;;
26965;SDS011;14522;52.068;4.414;2022-08-11T16:51:06;1.77;;;1.20;;
26965;SDS011;14522;52.068;4.414;2022-08-11T16:53:33;1.80;;;0.98;;
26965;SDS011;14522;52.068;4.414;2022-08-11T16:56:20;4.25;;;1.17;;
26965;SDS011;14522;52.068;4.414;2022-08-11T16:58:51;1.70;;;1.20;;
26965;SDS011;14522;52.068;4.414;2022-08-11T17:01:37;6.50;;;1.13;;
26965;SDS011;14522;52.068;4.414;2022-08-11T17:04:08;4.75;;;1.25;;
26965;SDS011;14522;52.068;4.414;2022-08-11T17:06:56;3.50;;;1.33;;
26965;SDS011;14522;52.068;4.414;2022-08-11T17:10:02;3.35;;;1.33;;
26965;SDS011;14522;52.068;4.414;2022-08-11T17:13:09;3.05;;;1.20;;
26965;SDS011;14522;52.068;4.414;2022-08-11T17:15:44;3.28;;;1.23;;
26965;SDS011;14522;52.068;4.414;2022-08-11T17:18:32;2.08;;;1.15;;
26965;SDS011;14522;52.068;4.414;2022-08-11T17:21:06;2.28;;;1.23;;
26965;SDS011;14522;52.068;4.414;2022-08-11T17:23:34;4.70;;;1.20;;
26965;SDS011;14522;52.068;4.414;2022-08-11T17:26:17;2.88;;;1.90;;
26965;SDS011;14522;52.068;4.414;2022-08-11T17:28:44;6.47;;;1.10;;
26965;SDS011;14522;52.068;4.414;2022-08-11T17:31:12;4.10;;;1.48;;
26965;SDS011;14522;52.068;4.414;2022-08-11T17:33:58;1.75;;;1.20;;
26965;SDS011;14522;52.068;4.414;2022-08-11T17:36:44;5.22;;;1.10;;
26965;SDS011;14522;52.068;4.414;2022-08-11T17:39:11;3.22;;;1.38;;
26965;SDS011;14522;52.068;4.414;2022-08-11T17:41:39;1.65;;;0.95;;
26965;SDS011;14522;52.068;4.414;2022-08-11T17:44:24;3.58;;;1.10;;
26965;SDS011;14522;52.068;4.414;2022-08-11T17:47:10;2.22;;;1.40;;
26965;SDS011;14522;52.068;4.414;2022-08-11T17:49:55;5.78;;;1.20;;
26965;SDS011;14522;52.068;4.414;2022-08-11T17:52:42;6.40;;;1.50;;
26965;SDS011;14522;52.068;4.414;2022-08-11T17:58:17;5.15;;;1.30;;
26965;SDS011;14522;52.068;4.414;2022-08-11T18:01:03;5.07;;;1.95;;
26965;SDS011;14522;52.068;4.414;2022-08-11T18:03:34;5.68;;;1.55;;
26965;SDS011;14522;52.068;4.414;2022-08-11T18:06:06;2.22;;;1.08;;
26965;SDS011;14522;52.068;4.414;2022-08-11T18:08:43;6.78;;;1.55;;
26965;SDS011;14522;52.068;4.414;2022-08-11T18:11:30;1.70;;;0.85;;
26965;SDS011;14522;52.068;4.414;2022-08-11T18:14:35;5.03;;;1.17;;
26965;SDS011;14522;52.068;4.414;2022-08-11T18:17:22;3.35;;;1.48;;
26965;SDS011;14522;52.068;4.414;2022-08-11T18:20:07;3.75;;;1.17;;
26965;SDS011;14522;52.068;4.414;2022-08-11T18:22:53;3.90;;;1.10;;
26965;SDS011;14522;52.068;4.414;2022-08-11T18:25:39;3.30;;;1.27;;
26965;SDS011;14522;52.068;4.414;2022-08-11T18:28:26;4.15;;;1.45;;
26965;SDS011;14522;52.068;4.414;2022-08-11T18:31:13;4.22;;;1.13;;
26965;SDS011;14522;52.068;4.414;2022-08-11T18:34:00;3.65;;;1.00;;
26965;SDS011;14522;52.068;4.414;2022-08-11T18:39:58;2.38;;;1.10;;
26965;SDS011;14522;52.068;4.414;2022-08-11T18:42:44;3.40;;;1.50;;
26965;SDS011;14522;52.068;4.414;2022-08-11T18:45:30;4.28;;;1.48;;
26965;SDS011;14522;52.068;4.414;2022-08-11T18:48:31;8.35;;;1.08;;
26965;SDS011;14522;52.068;4.414;2022-08-11T18:51:19;2.83;;;1.45;;
26965;SDS011;14522;52.068;4.414;2022-08-11T18:54:06;6.93;;;1.20;;
26965;SDS011;14522;52.068;4.414;2022-08-11T18:56:52;3.85;;;1.30;;
26965;SDS011;14522;52.068;4.414;2022-08-11T18:59:39;1.75;;;1.08;;
26965;SDS011;14522;52.068;4.414;2022-08-11T19:02:25;4.95;;;1.83;;
26965;SDS011;14522;52.068;4.414;2022-08-11T19:05:14;1.80;;;1.17;;
26965;SDS011;14522;52.068;4.414;2022-08-11T19:08:20;2.72;;;1.52;;
26965;SDS011;14522;52.068;4.414;2022-08-11T19:11:05;2.33;;;1.45;;
26965;SDS011;14522;52.068;4.414;2022-08-11T19:13:51;7.22;;;1.40;;
26965;SDS011;14522;52.068;4.414;2022-08-11T19:16:36;4.80;;;1.42;;
26965;SDS011;14522;52.068;4.414;2022-08-11T19:19:23;4.63;;;1.33;;
26965;SDS011;14522;52.068;4.414;2022-08-11T19:22:12;5.28;;;1.50;;
26965;SDS011;14522;52.068;4.414;2022-08-11T19:24:57;2.90;;;1.50;;
26965;SDS011;14522;52.068;4.414;2022-08-11T19:27:50;2.97;;;1.48;;
26965;SDS011;14522;52.068;4.414;2022-08-11T19:30:36;2.30;;;1.50;;
26965;SDS011;14522;52.068;4.414;2022-08-11T19:33:22;3.75;;;1.30;;